Time;durP1;ratioP1;P1;durP2;ratioP2;P2;SDS_P1;SDS_P2;PMS_P1;PMS_P2;Temp;Humidity;BMP_temperature;BMP_pressure;BME280_temperature;BME280_humidity;BME280_pressure;Samples;Min_cycle;Max_cycle;Signal;HPM_P1;HPM_P2
2022/06/25 00:02:22;;;;;;;6.88;4.53;;;;;;;18.07;100.00;100551.88;5052443;28;20090;-58
2022/06/25 00:07:31;;;;;;;4.22;3.75;;;;;;;17.98;100.00;100528.50;5052466;28;20048;-57
2022/06/25 00:09:56;;;;;;;6.10;4.40;;;;;;;18.37;100.00;100611.06;5052115;28;20025;-56
2022/06/25 00:12:34;;;;;;;5.60;4.90;;;;;;;18.36;100.00;100613.81;5052283;28;20037;-56
2022/06/25 00:15:04;;;;;;;6.18;5.03;;;;;;;18.31;100.00;100616.81;5052296;28;20040;-58
2022/06/25 00:17:30;;;;;;;5.07;4.53;;;;;;;18.12;100.00;100587.06;5052372;28;20082;-55
2022/06/25 00:19:55;;;;;;;4.63;4.20;;;;;;;18.28;100.00;100617.03;5052220;28;20120;-58
2022/06/25 00:22:21;;;;;;;6.47;4.78;;;;;;;18.17;100.00;100608.03;5050816;28;20067;-58
2022/06/25 00:24:46;;;;;;;5.68;4.45;;;;;;;18.28;100.00;100624.16;5052513;28;20496;-54
2022/06/25 00:27:11;;;;;;;5.40;4.90;;;;;;;18.24;100.00;100622.69;5050804;28;20033;-57
2022/06/25 00:29:37;;;;;;;5.35;4.70;;;;;;;17.99;100.00;100578.16;5052332;28;20059;-55
2022/06/25 00:32:04;;;;;;;5.88;4.53;;;;;;;18.25;100.00;100632.34;5050834;28;20029;-57
2022/06/25 00:34:30;;;;;;;5.55;5.05;;;;;;;18.31;100.00;100623.94;5052125;28;20134;-55
2022/06/25 00:36:55;;;;;;;5.47;4.40;;;;;;;18.29;100.00;100621.41;5051988;28;20423;-57
2022/06/25 00:39:20;;;;;;;5.78;4.45;;;;;;;18.10;100.00;100591.63;5050695;28;20048;-57
2022/06/25 00:41:46;;;;;;;7.78;4.90;;;;;;;18.29;100.00;100617.88;5051801;28;20037;-55
2022/06/25 00:44:11;;;;;;;5.85;5.13;;;;;;;18.21;100.00;100610.41;5054179;28;20069;-58
2022/06/25 00:46:36;;;;;;;5.72;5.03;;;;;;;18.02;100.00;100571.78;5055988;28;20029;-56
2022/06/25 00:49:03;;;;;;;5.70;5.00;;;;;;;17.92;100.00;100560.91;5056110;28;20033;-57
2022/06/25 00:51:31;;;;;;;6.70;5.47;;;;;;;18.17;100.00;100619.56;5055959;28;20033;-56
2022/06/25 00:53:59;;;;;;;6.20;5.60;;;;;;;17.90;100.00;100570.78;5054646;28;20055;-52
2022/06/25 00:56:26;;;;;;;8.15;5.35;;;;;;;18.07;100.00;100604.31;5054470;28;20040;-55
2022/06/25 00:58:52;;;;;;;5.72;5.18;;;;;;;17.99;100.00;100602.13;5054729;28;20037;-56
2022/06/25 01:01:18;;;;;;;5.78;5.20;;;;;;;17.81;100.00;100566.06;5054555;28;20060;-57
2022/06/25 01:03:44;;;;;;;6.32;5.45;;;;;;;18.11;100.00;100619.09;5054652;28;20033;-57
2022/06/25 01:06:09;;;;;;;8.13;5.55;;;;;;;18.09;100.00;100626.34;5055748;28;20060;-58
2022/06/25 01:08:35;;;;;;;7.38;6.32;;;;;;;18.07;100.00;100629.09;5054252;28;20461;-61
2022/06/25 01:11:02;;;;;;;6.90;6.20;;;;;;;18.01;100.00;100628.69;5054374;28;20111;-55
2022/06/25 01:13:28;;;;;;;6.60;5.85;;;;;;;17.72;100.00;100583.50;5054315;28;20060;-56
2022/06/25 01:15:53;;;;;;;7.95;6.32;;;;;;;17.99;100.00;100632.28;5055493;28;20060;-55
2022/06/25 01:18:19;;;;;;;6.93;6.30;;;;;;;17.53;100.00;100560.84;5055397;28;20029;-52
2022/06/25 01:20:44;;;;;;;6.90;6.20;;;;;;;17.95;100.00;100635.25;5055920;28;20036;-56
2022/06/25 01:23:11;;;;;;;6.88;6.00;;;;;;;17.88;100.00;100623.31;5055148;28;20067;-56
2022/06/25 01:25:37;;;;;;;6.90;6.18;;;;;;;17.67;100.00;100580.31;5055243;28;20033;-58
2022/06/25 01:28:03;;;;;;;7.30;5.72;;;;;;;17.96;100.00;100651.13;5055434;28;20063;-57
2022/06/25 01:30:29;;;;;;;7.88;6.05;;;;;;;17.58;100.00;100596.88;5055232;28;20111;-59
2022/06/25 01:32:55;;;;;;;6.50;5.85;;;;;;;17.59;100.00;100595.94;5054090;28;20063;-57
2022/06/25 01:35:20;;;;;;;11.70;6.30;;;;;;;17.88;100.00;100658.78;5053765;28;20033;-56
2022/06/25 01:37:46;;;;;;;8.30;6.18;;;;;;;17.86;100.00;100654.50;5053875;28;20033;-58
2022/06/25 01:40:11;;;;;;;10.63;6.88;;;;;;;17.90;100.00;100654.19;5054948;28;20130;-56
2022/06/25 01:45:20;;;;;;;7.60;6.75;;;;;;;17.83;100.00;100660.03;5055200;28;20102;-56
2022/06/25 01:47:45;;;;;;;10.63;7.82;;;;;;;17.47;100.00;100606.47;5054990;28;20120;-56
2022/06/25 01:50:11;;;;;;;7.88;6.88;;;;;;;17.77;100.00;100674.59;5054676;28;20483;-57
2022/06/25 01:52:37;;;;;;;9.10;7.03;;;;;;;17.69;100.00;100652.94;5053461;28;20411;-56
2022/06/25 01:55:03;;;;;;;12.98;6.93;;;;;;;17.75;100.00;100662.31;5053054;28;20039;-57
2022/06/25 01:57:28;;;;;;;9.23;6.88;;;;;;;17.38;100.00;100611.44;5054639;28;20132;-57
2022/06/25 01:59:53;;;;;;;8.88;6.47;;;;;;;17.76;100.00;100682.66;5054836;28;20029;-56
2022/06/25 02:02:19;;;;;;;10.30;7.22;;;;;;;17.62;100.00;100654.28;5054613;28;20120;-55
2022/06/25 02:04:44;;;;;;;9.02;6.72;;;;;;;17.37;100.00;100624.81;5054605;28;20051;-57
2022/06/25 02:07:10;;;;;;;11.57;7.15;;;;;;;17.25;100.00;100602.53;5054552;28;20400;-59
2022/06/25 02:09:35;;;;;;;14.50;7.40;;;;;;;17.67;100.00;100684.13;5053482;28;20037;-56
2022/06/25 02:12:01;;;;;;;13.10;7.38;;;;;;;17.45;100.00;100657.97;5054661;28;20037;-58
2022/06/25 02:14:26;;;;;;;12.73;7.63;;;;;;;17.32;100.00;100630.44;5054477;28;20112;-55
2022/06/25 02:16:52;;;;;;;12.52;8.57;;;;;;;17.36;100.00;100628.47;5054493;28;20407;-58
2022/06/25 02:19:18;;;;;;;12.10;7.65;;;;;;;17.37;100.00;100638.13;5053079;28;20033;-57
2022/06/25 02:21:43;;;;;;;11.40;8.15;;;;;;;17.63;100.00;100681.78;5054029;28;20060;-58
2022/06/25 02:24:09;;;;;;;14.90;8.05;;;;;;;17.67;100.00;100688.59;5054453;28;20033;-58
2022/06/25 02:26:34;;;;;;;12.48;7.75;;;;;;;17.38;100.00;100642.50;5054020;28;20162;-58
2022/06/25 02:28:59;;;;;;;14.75;8.27;;;;;;;17.29;100.00;100648.41;5053101;28;20037;-58
2022/06/25 02:31:25;;;;;;;11.52;7.28;;;;;;;17.56;100.00;100675.97;5054204;28;20464;-57
2022/06/25 02:33:50;;;;;;;11.60;8.13;;;;;;;17.64;100.00;100680.78;5054086;28;20118;-58
2022/06/25 02:36:15;;;;;;;13.10;6.95;;;;;;;17.55;100.00;100679.56;5053896;28;20033;-56
2022/06/25 02:38:41;;;;;;;11.27;7.28;;;;;;;17.68;100.00;100695.63;5052545;28;20109;-57
2022/06/25 02:41:06;;;;;;;10.18;7.00;;;;;;;17.67;100.00;100689.44;5053964;28;20119;-57
2022/06/25 02:43:31;;;;;;;9.73;6.93;;;;;;;17.65;100.00;100696.69;5053667;28;20033;-57
2022/06/25 02:45:56;;;;;;;10.38;6.30;;;;;;;17.63;100.00;100689.75;5053716;28;20025;-55
2022/06/25 02:48:23;;;;;;;12.50;6.70;;;;;;;17.61;100.00;100702.28;5053310;28;20033;-59
2022/06/25 02:50:48;;;;;;;7.90;5.55;;;;;;;17.62;100.00;100710.19;5053409;28;20040;-56
2022/06/25 02:53:14;;;;;;;7.22;5.30;;;;;;;17.60;100.00;100706.75;5053458;28;20037;-56
2022/06/25 03:01:07;;;;;;;7.15;4.65;;;;;;;17.59;100.00;100714.84;5053439;28;20091;-56
2022/06/25 03:03:32;;;;;;;5.25;4.75;;;;;;;17.55;100.00;100721.28;5053303;28;20052;-55
2022/06/25 03:05:57;;;;;;;7.60;4.85;;;;;;;17.48;100.00;100701.34;5051555;28;20037;-56
2022/06/25 03:08:23;;;;;;;10.70;5.20;;;;;;;17.26;100.00;100668.06;5053546;28;20024;-58
2022/06/25 03:10:48;;;;;;;6.35;4.90;;;;;;;17.25;100.00;100673.50;5053104;28;20059;-54
2022/06/25 03:13:13;;;;;;;4.80;3.72;;;;;;;17.27;100.00;100669.81;5053229;28;20068;-55
2022/06/25 03:15:39;;;;;;;8.88;4.40;;;;;;;17.58;100.00;100721.97;5053002;28;20029;-57
2022/06/25 03:18:04;;;;;;;5.38;4.30;;;;;;;17.61;100.00;100747.53;5053157;28;20036;-56
2022/06/25 03:20:29;;;;;;;7.13;4.72;;;;;;;17.63;100.00;100724.34;5052074;28;20404;-58
2022/06/25 03:22:55;;;;;;;7.72;4.05;;;;;;;17.58;100.00;100718.44;5051629;28;20057;-55
2022/06/25 03:25:21;;;;;;;7.95;4.00;;;;;;;17.62;100.00;100725.28;5052963;28;20032;-58
2022/06/25 03:27:46;;;;;;;7.00;3.88;;;;;;;17.42;100.00;100676.78;5052819;28;20071;-56
2022/06/25 03:30:12;;;;;;;7.20;3.92;;;;;;;17.79;100.00;100736.59;5051753;28;20037;-58
2022/06/25 03:32:37;;;;;;;9.55;4.00;;;;;;;17.55;100.00;100719.50;5053407;28;20448;-59
2022/06/25 03:35:03;;;;;;;5.05;3.65;;;;;;;17.82;100.00;100741.72;5052809;28;20129;-58
2022/06/25 03:37:28;;;;;;;5.30;3.35;;;;;;;17.84;100.00;100738.94;5052980;28;20550;-55
2022/06/25 03:39:53;;;;;;;7.40;3.80;;;;;;;17.87;100.00;100746.72;5053022;28;20033;-57
2022/06/25 03:42:18;;;;;;;8.27;3.60;;;;;;;17.63;100.00;100703.06;5052802;28;20396;-59
2022/06/25 03:44:44;;;;;;;7.32;3.75;;;;;;;17.94;100.00;100756.06;5052635;28;20083;-57
2022/06/25 03:47:09;;;;;;;7.05;4.00;;;;;;;17.73;100.00;100710.34;5052697;28;20069;-58
2022/06/25 03:49:34;;;;;;;5.78;3.47;;;;;;;18.09;100.00;100778.19;5052406;28;20111;-57
2022/06/25 03:52:00;;;;;;;4.30;3.33;;;;;;;18.15;100.00;100772.47;5052651;28;20037;-57
2022/06/25 03:54:25;;;;;;;7.63;4.35;;;;;;;17.94;100.00;100737.41;5052461;28;20037;-55
2022/06/25 03:56:51;;;;;;;7.28;3.63;;;;;;;18.20;100.00;100773.00;5052386;28;20396;-56
2022/06/25 03:59:16;;;;;;;5.55;3.80;;;;;;;18.26;100.00;100776.16;5052388;28;20033;-56
2022/06/25 04:01:41;;;;;;;6.38;4.60;;;;;;;18.02;100.00;100737.75;5052206;28;20099;-58
2022/06/25 04:04:07;;;;;;;7.40;4.13;;;;;;;18.29;100.00;100785.75;5052230;28;20116;-55
2022/06/25 04:06:32;;;;;;;12.35;4.07;;;;;;;18.37;100.00;100791.41;5051049;28;20095;-57
2022/06/25 04:08:57;;;;;;;6.65;4.30;;;;;;;18.36;100.00;100787.91;5052430;28;20032;-56
2022/06/25 04:11:23;;;;;;;7.30;4.78;;;;;;;18.43;100.00;100802.53;5051054;28;20033;-57
2022/06/25 04:13:48;;;;;;;7.43;4.32;;;;;;;18.23;100.00;100757.69;5051130;28;20209;-57
2022/06/25 04:16:13;;;;;;;7.00;4.03;;;;;;;18.31;100.00;100776.69;5052295;28;20086;-58
2022/06/25 04:18:39;;;;;;;8.68;4.53;;;;;;;18.46;100.00;100804.16;5051942;28;20120;-57
2022/06/25 04:21:04;;;;;;;5.97;3.45;;;;;;;18.17;100.00;100741.25;5052146;28;20130;-57
2022/06/25 04:23:30;;;;;;;6.18;3.28;;;;;;;18.22;100.00;100753.31;5050646;28;20507;-56
2022/06/25 04:25:56;;;;;;;9.48;3.80;;;;;;;18.23;100.00;100757.69;5051072;28;20041;-56
2022/06/25 04:31:05;;;;;;;6.15;3.50;;;;;;;18.47;100.00;100798.75;5052349;28;20055;-53
2022/06/25 04:33:30;;;;;;;8.40;3.70;;;;;;;18.15;100.00;100751.16;5052211;28;20025;-57
2022/06/25 04:35:55;;;;;;;5.20;3.42;;;;;;;18.50;100.00;100813.69;5052017;28;20029;-55
2022/06/25 04:38:21;;;;;;;5.85;3.10;;;;;;;18.50;100.00;100806.53;5052055;28;20037;-57
2022/06/25 04:40:47;;;;;;;4.30;2.80;;;;;;;18.33;100.00;100787.25;5051843;28;20033;-56
2022/06/25 04:43:12;;;;;;;5.43;3.08;;;;;;;18.48;100.00;100820.88;5051860;28;20472;-58
2022/06/25 04:45:37;;;;;;;6.95;3.10;;;;;;;18.17;100.00;100763.41;5051840;28;20037;-56
2022/06/25 04:48:04;;;;;;;6.22;2.92;;;;;;;18.19;100.00;100772.16;5052027;28;20132;-56
2022/06/25 04:50:29;;;;;;;4.07;2.75;;;;;;;18.35;100.00;100812.84;5052052;28;20104;-57
2022/06/25 04:52:55;;;;;;;6.05;2.65;;;;;;;18.24;100.00;100804.69;5052085;28;20440;-55
2022/06/25 04:55:20;;;;;;;6.10;2.97;;;;;;;18.31;100.00;100819.31;5050646;28;20057;-55
2022/06/25 04:57:45;;;;;;;3.17;2.70;;;;;;;18.49;100.00;100831.50;5051738;28;20029;-57
2022/06/25 05:00:11;;;;;;;5.32;2.95;;;;;;;18.20;100.00;100779.19;5051784;28;20116;-56
2022/06/25 05:02:38;;;;;;;3.75;2.65;;;;;;;18.13;100.00;100753.03;5041718;28;20484;-57
2022/06/25 05:05:04;;;;;;;3.38;2.15;;;;;;;18.49;100.00;100803.97;5047788;28;20037;-55
2022/06/25 05:07:30;;;;;;;3.83;2.50;;;;;;;18.49;100.00;100799.50;5048097;28;20119;-56
2022/06/25 05:09:55;;;;;;;3.92;2.38;;;;;;;18.59;100.00;100801.56;5031853;28;20116;-50
2022/06/25 05:15:05;;;;;;;6.93;2.75;;;;;;;18.85;100.00;100798.03;5030924;28;20488;-58
2022/06/25 05:17:30;;;;;;;6.25;2.40;;;;;;;19.13;100.00;100845.03;5030559;28;20061;-56
2022/06/25 05:19:56;;;;;;;4.72;2.38;;;;;;;19.24;100.00;100848.69;5030333;28;20103;-54
2022/06/25 05:22:23;;;;;;;4.30;2.30;;;;;;;19.36;100.00;100857.66;5030154;28;20057;-57
2022/06/25 05:24:49;;;;;;;2.47;1.95;;;;;;;19.47;100.00;100864.00;5030422;28;20029;-53
2022/06/25 05:27:14;;;;;;;5.05;2.20;;;;;;;19.47;100.00;100847.13;5031970;28;20151;-56
2022/06/25 05:29:40;;;;;;;4.85;2.35;;;;;;;19.67;100.00;100878.69;5032839;28;20079;-58
2022/06/25 05:32:05;;;;;;;5.95;2.42;;;;;;;19.77;100.00;100874.38;5034160;28;20034;-59
2022/06/25 05:34:31;;;;;;;4.03;2.45;;;;;;;19.87;100.00;100872.78;5035142;28;20037;-58
2022/06/25 05:36:56;;;;;;;6.13;2.55;;;;;;;19.98;100.00;100872.88;5035353;28;20144;-57
2022/06/25 05:39:22;;;;;;;3.92;2.30;;;;;;;19.96;100.00;100879.31;5034823;28;20025;-56
2022/06/25 05:41:47;;;;;;;3.85;1.90;;;;;;;19.99;100.00;100895.94;5034812;28;20041;-56
2022/06/25 05:44:12;;;;;;;4.18;2.22;;;;;;;19.89;100.00;100902.91;5035109;28;20039;-55
2022/06/25 05:46:38;;;;;;;3.60;1.95;;;;;;;19.53;100.00;100850.25;5033780;28;20393;-58
2022/06/25 05:49:03;;;;;;;6.70;2.67;;;;;;;19.44;100.00;100863.38;5034838;28;20029;-59
2022/06/25 05:51:28;;;;;;;4.13;2.33;;;;;;;19.64;100.00;100893.06;5034928;28;20039;-53
2022/06/25 05:53:54;;;;;;;5.32;2.47;;;;;;;19.66;100.00;100901.00;5033511;28;20033;-58
2022/06/25 05:56:19;;;;;;;4.15;2.60;;;;;;;19.67;100.00;100881.34;5034908;28;20051;-57
2022/06/25 05:58:44;;;;;;;3.20;2.20;;;;;;;19.84;100.00;100902.38;5034641;28;20077;-54
2022/06/25 06:01:10;;;;;;;4.05;2.40;;;;;;;20.02;100.00;100905.59;5034940;28;20378;-56
2022/06/25 06:03:35;;;;;;;5.78;2.08;;;;;;;20.17;100.00;100894.66;5034653;28;20120;-58
2022/06/25 06:06:00;;;;;;;4.40;2.42;;;;;;;20.28;100.00;100893.94;5034692;28;20454;-57
2022/06/25 06:08:26;;;;;;;5.25;2.25;;;;;;;20.34;100.00;100909.53;5034536;28;20025;-56
2022/06/25 06:10:51;;;;;;;2.38;2.03;;;;;;;20.18;100.00;100879.47;5034343;28;20029;-57
2022/06/25 06:13:16;;;;;;;5.10;2.80;;;;;;;20.45;100.00;100914.09;5033556;28;20081;-56
2022/06/25 06:15:42;;;;;;;7.82;2.53;;;;;;;20.59;100.00;100903.25;5034642;28;20037;-55
2022/06/25 06:18:07;;;;;;;7.18;2.30;;;;;;;20.59;100.00;100871.16;5034613;28;20049;-60
2022/06/25 06:20:32;;;;;;;5.50;2.25;;;;;;;21.04;100.00;100921.28;5034495;28;20037;-56
2022/06/25 06:22:58;;;;;;;4.38;2.33;;;;;;;21.20;100.00;100927.22;5034590;28;20058;-57
2022/06/25 06:25:23;;;;;;;4.78;2.20;;;;;;;21.29;100.00;100931.91;5034479;28;20176;-58
2022/06/25 06:27:49;;;;;;;3.08;1.90;;;;;;;21.37;100.00;100935.78;5034629;28;20128;-56
2022/06/25 06:30:15;;;;;;;3.47;2.15;;;;;;;21.35;100.00;100943.97;5034499;28;20125;-57
2022/06/25 06:32:40;;;;;;;3.10;1.83;;;;;;;21.27;100.00;100943.69;5034241;28;20057;-58
2022/06/25 06:35:06;;;;;;;2.22;2.03;;;;;;;21.29;100.00;100939.94;5034286;28;20053;-57
2022/06/25 06:37:32;;;;;;;5.40;2.15;;;;;;;21.08;100.00;100909.41;5033979;28;20416;-56
2022/06/25 06:39:57;;;;;;;4.43;2.60;;;;;;;21.27;100.00;100946.38;5033897;28;20033;-57
2022/06/25 06:42:22;;;;;;;7.80;1.88;;;;;;;21.15;100.00;100952.63;5033941;28;20124;-57
2022/06/25 06:44:48;;;;;;;5.80;2.60;;;;;;;20.75;100.00;100891.31;5034094;28;20045;-57
2022/06/25 06:47:13;;;;;;;3.97;1.80;;;;;;;20.95;100.00;100955.91;5033734;28;20118;-55
2022/06/25 06:49:38;;;;;;;2.50;1.90;;;;;;;20.53;100.00;100909.06;5032378;28;20433;-58
2022/06/25 06:52:04;;;;;;;3.08;1.80;;;;;;;20.41;100.00;100902.78;5033763;28;20534;-56
2022/06/25 06:54:30;;;;;;;4.13;2.00;;;;;;;20.32;100.00;100916.78;5033352;28;20148;-57
2022/06/25 06:56:55;;;;;;;4.47;2.00;;;;;;;20.14;100.00;100915.38;5032239;28;20083;-57
2022/06/25 06:59:21;;;;;;;6.13;2.10;;;;;;;19.41;100.00;100811.03;5032622;28;20037;-57
2022/06/25 07:01:47;;;;;;;4.38;1.77;;;;;;;20.18;100.00;100959.66;5032353;28;20025;-56
2022/06/25 07:04:12;;;;;;;2.65;1.80;;;;;;;20.21;100.00;100975.47;5033441;28;20469;-54
2022/06/25 07:06:37;;;;;;;4.97;1.92;;;;;;;20.20;100.00;100958.59;5032092;28;20030;-57
2022/06/25 07:09:03;;;;;;;6.35;1.92;;;;;;;20.23;100.00;100953.03;5033337;28;20040;-58
2022/06/25 07:11:29;;;;;;;2.47;2.00;;;;;;;20.22;100.00;100950.47;5033068;28;20037;-55
2022/06/25 07:14:01;;;;;;;3.17;2.10;;;;;;;20.29;100.00;100973.16;5033480;28;20125;-55
2022/06/25 07:16:28;;;;;;;5.03;2.35;;;;;;;19.99;100.00;100924.50;5033055;28;20112;-57
2022/06/25 07:18:55;;;;;;;2.78;1.80;;;;;;;19.95;100.00;100947.03;5033158;28;20119;-57
2022/06/25 07:21:20;;;;;;;2.15;1.95;;;;;;;19.89;100.00;100943.00;5032786;28;20392;-58
2022/06/25 07:23:45;;;;;;;6.50;2.30;;;;;;;19.99;100.00;100962.75;5032929;28;20049;-57
2022/06/25 07:26:11;;;;;;;5.07;2.17;;;;;;;19.99;100.00;100972.59;5031638;28;20432;-58
2022/06/25 07:28:36;;;;;;;3.67;2.80;;;;;;;20.00;100.00;100975.16;5032068;28;20037;-55
2022/06/25 07:31:02;;;;;;;3.67;2.38;;;;;;;19.95;100.00;100966.63;5031927;28;20029;-56
2022/06/25 07:33:29;;;;;;;3.78;2.47;;;;;;;19.98;100.00;100990.44;5033137;28;20485;-57
2022/06/25 07:35:55;;;;;;;3.72;2.40;;;;;;;20.00;100.00;100983.16;5031697;28;20366;-55
2022/06/25 07:38:20;;;;;;;6.18;2.60;;;;;;;19.75;100.00;100948.44;5032905;28;20041;-56
2022/06/25 07:40:46;;;;;;;4.35;2.63;;;;;;;19.65;100.00;100950.00;5032921;28;20041;-57
2022/06/25 07:43:11;;;;;;;4.03;2.60;;;;;;;19.86;100.00;100985.94;5031759;28;20045;-57
2022/06/25 07:45:37;;;;;;;3.67;2.28;;;;;;;19.87;100.00;100986.81;5032966;28;20043;-57
2022/06/25 07:48:02;;;;;;;4.93;2.35;;;;;;;19.90;100.00;100991.94;5032809;28;20044;-55
2022/06/25 07:53:11;;;;;;;2.42;1.90;;;;;;;20.04;100.00;100997.19;5031999;28;20187;-55
2022/06/25 07:55:36;;;;;;;5.82;2.20;;;;;;;19.90;100.00;100954.53;5032681;28;20488;-53
2022/06/25 07:58:02;;;;;;;5.30;2.28;;;;;;;20.10;100.00;100994.94;5032974;28;20039;-57
2022/06/25 08:00:27;;;;;;;4.95;1.88;;;;;;;19.86;100.00;100955.69;5032540;28;20116;-54
2022/06/25 08:02:52;;;;;;;2.75;1.67;;;;;;;20.01;100.00;101008.09;5032669;28;20373;-58
2022/06/25 08:05:18;;;;;;;4.85;2.00;;;;;;;19.76;100.00;100981.34;5031169;28;20075;-58
2022/06/25 08:07:45;;;;;;;4.65;1.85;;;;;;;19.80;100.00;101015.75;5032250;28;20033;-59
2022/06/25 08:10:11;;;;;;;5.32;1.55;;;;;;;19.82;100.00;101010.31;5032675;28;20065;-58
2022/06/25 08:12:36;;;;;;;3.13;1.63;;;;;;;19.61;100.00;100983.25;5032420;28;20060;-57
2022/06/25 08:15:01;;;;;;;3.08;1.60;;;;;;;19.84;100.00;100997.69;5031429;28;20033;-55
2022/06/25 08:17:28;;;;;;;3.58;1.55;;;;;;;19.93;100.00;101008.63;5031293;28;20042;-56
2022/06/25 08:19:53;;;;;;;5.25;2.40;;;;;;;19.72;100.00;101015.41;5032240;28;20567;-54
2022/06/25 08:22:18;;;;;;;4.35;1.73;;;;;;;19.61;100.00;101005.44;5031978;28;20144;-55
2022/06/25 08:24:43;;;;;;;4.10;1.67;;;;;;;19.47;100.00;100980.59;5032274;28;20034;-57
2022/06/25 08:27:10;;;;;;;3.80;2.08;;;;;;;19.70;100.00;101012.00;5032263;28;20124;-56
2022/06/25 08:29:36;;;;;;;7.10;2.00;;;;;;;19.67;100.00;101004.19;5031254;28;20373;-58
2022/06/25 08:32:02;;;;;;;3.75;1.63;;;;;;;19.79;100.00;101022.03;5032348;28;20099;-56
2022/06/25 08:34:28;;;;;;;3.67;1.75;;;;;;;19.53;100.00;100983.72;5030411;28;20056;-56
2022/06/25 08:36:53;;;;;;;4.15;1.92;;;;;;;19.76;100.00;101032.09;5031735;28;20461;-55
2022/06/25 08:39:19;;;;;;;6.68;1.77;;;;;;;19.52;100.00;101038.13;5030028;28;20029;-55
2022/06/25 08:41:45;;;;;;;5.68;1.95;;;;;;;19.36;100.00;101028.50;5031094;28;20034;-56
2022/06/25 08:44:11;;;;;;;5.38;1.80;;;;;;;19.36;100.00;101031.16;5032103;28;20037;-57
2022/06/25 08:46:37;;;;;;;4.88;1.80;;;;;;;19.06;100.00;101002.84;5030388;28;20029;-59
2022/06/25 08:49:02;;;;;;;5.50;2.20;;;;;;;19.17;100.00;101044.00;5030512;28;20469;-59
2022/06/25 08:51:28;;;;;;;7.72;2.83;;;;;;;18.94;100.00;101027.63;5031903;28;20037;-58
2022/06/25 08:53:57;;;;;;;5.20;2.28;;;;;;;18.49;100.00;100972.78;5030505;28;20076;-58
2022/06/25 08:56:23;;;;;;;7.88;2.15;;;;;;;18.33;100.00;100981.81;5030885;28;20068;-58
2022/06/25 08:58:48;;;;;;;11.07;2.28;;;;;;;18.24;100.00;100975.19;5031907;28;20501;-59
2022/06/25 09:01:14;;;;;;;4.15;2.10;;;;;;;18.43;100.00;101018.44;5031885;28;20040;-58
2022/06/25 09:03:39;;;;;;;6.97;2.40;;;;;;;18.44;100.00;101020.16;5031713;28;20044;-59
2022/06/25 09:06:16;;;;;;;11.43;2.65;;;;;;;18.17;100.00;100986.34;5034108;28;20120;-60
2022/06/25 09:08:42;;;;;;;7.40;2.40;;;;;;;18.30;100.00;101016.63;5034584;28;20036;-56
2022/06/25 09:11:08;;;;;;;7.82;2.40;;;;;;;18.26;100.00;101021.28;5035499;28;20030;-59
2022/06/25 09:13:33;;;;;;;7.47;2.70;;;;;;;18.09;100.00;100976.16;5034174;28;20511;-59
2022/06/25 09:15:59;;;;;;;8.38;2.58;;;;;;;18.36;100.00;101017.09;5034017;28;20025;-58
2022/06/25 09:18:24;;;;;;;8.68;2.42;;;;;;;18.45;100.00;101031.66;5035175;28;20034;-58
2022/06/25 09:21:09;;;;;;;10.18;3.15;;;;;;;18.19;100.00;100979.09;5035283;28;20030;-56
2022/06/25 09:24:01;;;;;;;7.65;2.72;;;;;;;18.59;100.00;101029.03;5034995;28;20424;-56
2022/06/25 09:26:27;;;;;;;8.25;2.58;;;;;;;18.41;100.00;100985.69;5028279;28;20044;-57
2022/06/25 09:28:52;;;;;;;4.10;2.40;;;;;;;18.92;100.00;101018.03;5033780;28;20656;-58
2022/06/25 09:31:34;;;;;;;7.40;2.50;;;;;;;19.30;100.00;101031.56;5035266;28;20449;-57
2022/06/25 09:34:04;;;;;;;7.57;2.00;;;;;;;19.31;100.00;101026.13;5035278;28;20033;-56
2022/06/25 09:36:30;;;;;;;10.57;3.00;;;;;;;19.41;100.00;101053.13;5035041;28;20471;-60
2022/06/25 09:38:56;;;;;;;7.90;2.28;;;;;;;19.12;100.00;100995.44;5034956;28;20770;-63
2022/06/25 09:41:23;;;;;;;5.88;1.90;;;;;;;18.97;100.00;100999.94;5034914;28;20037;-62
2022/06/25 09:43:48;;;;;;;7.72;2.45;;;;;;;19.16;100.00;101076.97;5017097;28;20041;-61
2022/06/25 09:46:14;;;;;;;5.47;2.30;;;;;;;19.10;100.00;101072.88;5034887;28;20034;-64
2022/06/25 09:48:41;;;;;;;5.60;2.10;;;;;;;19.03;100.00;101074.25;5034385;28;20101;-62
2022/06/25 09:51:12;;;;;;;7.03;2.08;;;;;;;19.02;100.00;101077.84;5034584;28;20021;-61
2022/06/25 09:53:57;;;;;;;;;;;;;;;19.10;100.00;101065.75;5035181;28;20029;-61
2022/06/25 09:56:24;;;;;;;6.22;2.40;;;;;;;19.24;100.00;101067.50;5034575;28;20007;-63
2022/06/25 09:58:50;;;;;;;5.82;2.08;;;;;;;19.08;100.00;101032.13;5034908;28;20038;-61
2022/06/25 10:01:18;;;;;;;6.40;1.73;;;;;;;19.37;100.00;101084.47;5048425;28;20052;-61
2022/06/25 10:03:45;;;;;;;7.07;2.20;;;;;;;19.48;100.00;101084.66;5054195;28;20040;-60
2022/06/25 10:06:13;;;;;;;6.88;2.65;;;;;;;19.51;100.00;101086.25;5055407;28;20070;-62
2022/06/25 10:08:40;;;;;;;6.78;2.28;;;;;;;19.38;100.00;101046.13;5053112;28;20048;-61
2022/06/25 10:11:07;;;;;;;6.20;2.30;;;;;;;19.42;100.00;101028.13;5053253;28;20388;-63
2022/06/25 10:13:33;;;;;;;4.88;2.45;;;;;;;19.73;100.00;101073.19;5053142;28;20055;-61
2022/06/25 10:15:58;;;;;;;6.65;1.92;;;;;;;19.81;100.00;101062.00;5053711;28;20040;-59
2022/06/25 10:18:24;;;;;;;6.63;2.20;;;;;;;19.85;100.00;101023.47;5054150;28;20032;-60
2022/06/25 10:20:50;;;;;;;5.55;2.47;;;;;;;20.30;100.00;101033.69;5053912;28;20107;-61
2022/06/25 10:23:17;;;;;;;3.78;1.83;;;;;;;21.32;100.00;101102.16;5054142;28;20550;-61
2022/06/25 10:25:42;;;;;;;4.63;2.10;;;;;;;21.78;100.00;101038.00;5052739;28;20082;-61
2022/06/25 10:28:15;;;;;;;3.70;2.13;;;;;;;22.90;100.00;101102.53;5053908;28;20040;-64
2022/06/25 10:30:51;;;;;;;7.22;1.90;;;;;;;23.99;100.00;101106.13;5052700;28;20138;-61
2022/06/25 10:33:22;;;;;;;5.57;2.35;;;;;;;25.40;100.00;101085.66;5052748;28;20032;-59
2022/06/25 10:35:49;;;;;;;4.53;2.08;;;;;;;26.57;100.00;101135.00;5053054;28;20033;-61
2022/06/25 10:38:18;;;;;;;6.00;2.42;;;;;;;26.84;100.00;101105.41;5054113;28;20123;-60
2022/06/25 10:40:57;;;;;;;5.63;3.08;;;;;;;27.06;100.00;101133.88;5053738;28;20028;-63
2022/06/25 10:43:39;;;;;;;4.38;2.33;;;;;;;26.67;100.00;101096.19;5053563;28;20086;-62
2022/06/25 10:46:25;;;;;;;4.68;2.35;;;;;;;26.32;100.00;101130.22;5053615;28;20488;-62
2022/06/25 10:49:06;;;;;;;6.25;2.58;;;;;;;26.02;100.00;101150.91;5052403;28;20472;-61
2022/06/25 10:51:32;;;;;;;5.13;2.17;;;;;;;25.74;100.00;101149.06;5053314;28;20039;-59
2022/06/25 10:53:59;;;;;;;5.93;2.20;;;;;;;25.17;100.00;101117.38;5053440;28;20108;-60
2022/06/25 10:56:25;;;;;;;5.65;2.70;;;;;;;24.50;100.00;101128.63;5053160;28;20628;-60
2022/06/25 10:58:51;;;;;;;4.78;2.50;;;;;;;24.22;100.00;101129.28;5053500;28;20041;-62
2022/06/25 11:01:24;;;;;;;5.80;2.30;;;;;;;24.06;100.00;101123.44;5053486;28;20147;-59
2022/06/25 11:03:58;;;;;;;6.82;3.08;;;;;;;24.62;100.00;101121.31;5051934;28;20033;-61
2022/06/25 11:06:29;;;;;;;4.55;2.45;;;;;;;25.52;100.00;101133.97;5053199;28;20119;-58
2022/06/25 11:08:54;;;;;;;4.95;2.33;;;;;;;26.31;100.00;101107.78;5052996;28;20029;-61
2022/06/25 11:11:30;;;;;;;4.93;2.78;;;;;;;27.35;100.00;101132.75;5052104;28;20037;-60
2022/06/25 11:13:57;;;;;;;6.57;2.50;;;;;;;27.93;100.00;101159.50;5053119;28;20044;-62
2022/06/25 11:16:23;;;;;;;5.82;2.45;;;;;;;27.90;100.00;101146.25;5053071;28;20033;-60
2022/06/25 11:18:57;;;;;;;5.65;2.85;;;;;;;27.30;100.00;101140.47;5051538;28;20460;-59
2022/06/25 11:21:29;;;;;;;5.70;2.45;;;;;;;27.05;100.00;101165.47;5051291;28;20029;-61
2022/06/25 11:24:19;;;;;;;5.18;2.60;;;;;;;26.39;100.00;101099.78;5052897;28;20028;-59
2022/06/25 11:29:35;;;;;;;3.72;2.15;;;;;;;25.51;100.00;101140.31;5051582;28;20048;-60
2022/06/25 11:32:00;;;;;;;5.10;3.05;;;;;;;25.00;100.00;101143.09;5052765;28;20037;-60
2022/06/25 11:34:27;;;;;;;4.28;2.60;;;;;;;25.29;100.00;101128.88;5052725;28;20036;-61
2022/06/25 11:36:55;;;;;;;3.97;1.90;;;;;;;26.20;100.00;101124.97;5052663;28;20064;-59